sensor_id;sensor_type;location;lat;lon;timestamp;pressure;altitude;pressure_sealevel;temperature;humidity
69351;BME280;57106;51.446;-2.606;2023-02-13T00:02:08;103403.93;;;9.55;66.87
69351;BME280;57106;51.446;-2.606;2023-02-13T00:04:33;103401.73;;;9.50;66.86
69351;BME280;57106;51.446;-2.606;2023-02-13T00:06:59;103402.37;;;9.38;67.19
69351;BME280;57106;51.446;-2.606;2023-02-13T00:09:25;103401.80;;;9.34;66.66
69351;BME280;57106;51.446;-2.606;2023-02-13T00:11:50;103402.13;;;9.47;66.44
69351;BME280;57106;51.446;-2.606;2023-02-13T00:14:16;103399.97;;;9.66;65.64
69351;BME280;57106;51.446;-2.606;2023-02-13T00:19:17;103401.24;;;9.52;65.94
69351;BME280;57106;51.446;-2.606;2023-02-13T00:21:32;103399.62;;;9.66;65.17
69351;BME280;57106;51.446;-2.606;2023-02-13T00:23:57;103396.98;;;9.76;65.17
69351;BME280;57106;51.446;-2.606;2023-02-13T00:28:48;103398.64;;;9.67;65.13
69351;BME280;57106;51.446;-2.606;2023-02-13T00:31:16;103400.44;;;9.87;64.46
69351;BME280;57106;51.446;-2.606;2023-02-13T00:33:40;103399.04;;;9.66;65.16
69351;BME280;57106;51.446;-2.606;2023-02-13T01:00:19;103384.63;;;9.64;65.09
69351;BME280;57106;51.446;-2.606;2023-02-13T01:02:45;103382.20;;;9.49;65.56
69351;BME280;57106;51.446;-2.606;2023-02-13T01:05:10;103380.36;;;9.71;65.14
69351;BME280;57106;51.446;-2.606;2023-02-13T01:07:35;103380.37;;;9.68;65.04
69351;BME280;57106;51.446;-2.606;2023-02-13T01:10:00;103377.04;;;9.62;65.15
69351;BME280;57106;51.446;-2.606;2023-02-13T01:14:51;103378.17;;;9.83;64.58
69351;BME280;57106;51.446;-2.606;2023-02-13T01:17:16;103375.75;;;9.78;64.68
69351;BME280;57106;51.446;-2.606;2023-02-13T01:19:42;103371.77;;;9.88;64.39
69351;BME280;57106;51.446;-2.606;2023-02-13T01:22:07;103375.39;;;9.70;64.73
69351;BME280;57106;51.446;-2.606;2023-02-13T01:24:32;103368.21;;;9.76;64.81
69351;BME280;57106;51.446;-2.606;2023-02-13T01:26:58;103366.98;;;9.84;64.39
69351;BME280;57106;51.446;-2.606;2023-02-13T01:29:23;103366.54;;;9.85;64.49
69351;BME280;57106;51.446;-2.606;2023-02-13T01:31:48;103367.68;;;10.02;64.24
69351;BME280;57106;51.446;-2.606;2023-02-13T01:34:13;103365.15;;;9.94;64.53
69351;BME280;57106;51.446;-2.606;2023-02-13T01:36:39;103364.71;;;9.93;64.22
69351;BME280;57106;51.446;-2.606;2023-02-13T01:39:04;103370.15;;;9.97;64.18
69351;BME280;57106;51.446;-2.606;2023-02-13T01:41:29;103372.82;;;9.89;64.05
69351;BME280;57106;51.446;-2.606;2023-02-13T01:43:57;103374.21;;;9.69;64.91
69351;BME280;57106;51.446;-2.606;2023-02-13T01:46:27;103378.61;;;9.65;65.10
69351;BME280;57106;51.446;-2.606;2023-02-13T01:48:54;103381.29;;;9.75;64.77
69351;BME280;57106;51.446;-2.606;2023-02-13T01:51:15;103384.08;;;9.75;64.46
69351;BME280;57106;51.446;-2.606;2023-02-13T01:53:43;103388.16;;;9.84;64.00
69351;BME280;57106;51.446;-2.606;2023-02-13T01:56:10;103385.41;;;9.88;64.02
69351;BME280;57106;51.446;-2.606;2023-02-13T01:58:32;103387.56;;;9.84;64.39
69351;BME280;57106;51.446;-2.606;2023-02-13T02:00:53;103386.41;;;9.97;63.93
69351;BME280;57106;51.446;-2.606;2023-02-13T02:03:23;103382.92;;;9.97;63.92
69351;BME280;57106;51.446;-2.606;2023-02-13T02:05:45;103377.19;;;9.95;63.72
69351;BME280;57106;51.446;-2.606;2023-02-13T02:08:19;103379.80;;;10.10;63.55
69351;BME280;57106;51.446;-2.606;2023-02-13T02:10:36;103376.82;;;9.99;63.30
69351;BME280;57106;51.446;-2.606;2023-02-13T02:27:53;103363.70;;;9.35;65.83
69351;BME280;57106;51.446;-2.606;2023-02-13T02:32:41;103360.72;;;9.35;65.74
69351;BME280;57106;51.446;-2.606;2023-02-13T02:37:28;103362.61;;;9.18;66.15
69351;BME280;57106;51.446;-2.606;2023-02-13T02:39:49;103365.85;;;9.52;65.19
69351;BME280;57106;51.446;-2.606;2023-02-13T02:42:16;103362.33;;;9.50;64.91
69351;BME280;57106;51.446;-2.606;2023-02-13T02:44:39;103360.22;;;9.55;64.69
69351;BME280;57106;51.446;-2.606;2023-02-13T02:47:09;103354.35;;;9.44;65.11
69351;BME280;57106;51.446;-2.606;2023-02-13T02:49:24;103351.74;;;9.73;64.32
69351;BME280;57106;51.446;-2.606;2023-02-13T02:51:56;103351.48;;;9.90;63.66
69351;BME280;57106;51.446;-2.606;2023-02-13T02:54:21;103346.15;;;9.35;65.23
69351;BME280;57106;51.446;-2.606;2023-02-13T02:56:42;103342.14;;;9.41;64.93
69351;BME280;57106;51.446;-2.606;2023-02-13T02:59:09;103340.54;;;9.47;64.95
69351;BME280;57106;51.446;-2.606;2023-02-13T03:01:32;103342.80;;;9.04;65.08
69351;BME280;57106;51.446;-2.606;2023-02-13T03:06:24;103338.02;;;9.37;64.25
69351;BME280;57106;51.446;-2.606;2023-02-13T03:08:52;103340.10;;;9.52;63.63
69351;BME280;57106;51.446;-2.606;2023-02-13T03:11:12;103334.27;;;9.40;63.65
69351;BME280;57106;51.446;-2.606;2023-02-13T03:13:41;103337.06;;;9.45;63.51
69351;BME280;57106;51.446;-2.606;2023-02-13T03:16:03;103338.69;;;9.39;63.71
69351;BME280;57106;51.446;-2.606;2023-02-13T03:18:30;103337.53;;;9.47;63.29
69351;BME280;57106;51.446;-2.606;2023-02-13T03:21:00;103340.71;;;9.22;64.06
69351;BME280;57106;51.446;-2.606;2023-02-13T03:23:31;103337.55;;;9.28;64.12
69351;BME280;57106;51.446;-2.606;2023-02-13T03:26:01;103339.21;;;9.35;64.05
69351;BME280;57106;51.446;-2.606;2023-02-13T03:28:18;103337.53;;;9.55;63.49
69351;BME280;57106;51.446;-2.606;2023-02-13T03:30:42;103339.07;;;9.69;63.03
69351;BME280;57106;51.446;-2.606;2023-02-13T03:33:09;103342.54;;;9.50;63.39
69351;BME280;57106;51.446;-2.606;2023-02-13T03:35:33;103340.93;;;9.57;63.38
69351;BME280;57106;51.446;-2.606;2023-02-13T03:37:58;103341.95;;;9.52;63.75
69351;BME280;57106;51.446;-2.606;2023-02-13T03:40:22;103338.71;;;9.56;63.71
69351;BME280;57106;51.446;-2.606;2023-02-13T03:42:47;103336.76;;;9.75;63.05
69351;BME280;57106;51.446;-2.606;2023-02-13T03:45:10;103334.31;;;9.42;63.61
69351;BME280;57106;51.446;-2.606;2023-02-13T04:14:15;103339.25;;;9.61;63.85
69351;BME280;57106;51.446;-2.606;2023-02-13T04:16:39;103332.70;;;9.50;63.87
69351;BME280;57106;51.446;-2.606;2023-02-13T04:21:31;103328.57;;;9.40;64.00
69351;BME280;57106;51.446;-2.606;2023-02-13T04:23:54;103326.53;;;9.23;64.94
69351;BME280;57106;51.446;-2.606;2023-02-13T04:26:22;103332.02;;;9.23;64.86
69351;BME280;57106;51.446;-2.606;2023-02-13T04:28:47;103331.04;;;9.21;64.83
69351;BME280;57106;51.446;-2.606;2023-02-13T04:31:11;103326.75;;;9.12;64.72
69351;BME280;57106;51.446;-2.606;2023-02-13T04:33:37;103325.24;;;8.94;64.75
69351;BME280;57106;51.446;-2.606;2023-02-13T04:36:03;103325.03;;;9.03;64.65
69351;BME280;57106;51.446;-2.606;2023-02-13T04:38:27;103325.88;;;9.22;64.40
69351;BME280;57106;51.446;-2.606;2023-02-13T04:40:52;103323.04;;;9.22;64.34
69351;BME280;57106;51.446;-2.606;2023-02-13T04:43:18;103323.68;;;9.20;64.00
69351;BME280;57106;51.446;-2.606;2023-02-13T04:45:47;103328.52;;;9.26;64.27
69351;BME280;57106;51.446;-2.606;2023-02-13T04:48:09;103327.84;;;9.38;63.73
69351;BME280;57106;51.446;-2.606;2023-02-13T04:50:34;103327.26;;;9.46;63.44
69351;BME280;57106;51.446;-2.606;2023-02-13T04:52:59;103327.04;;;9.53;63.22
69351;BME280;57106;51.446;-2.606;2023-02-13T04:55:26;103330.12;;;9.39;63.41
69351;BME280;57106;51.446;-2.606;2023-02-13T04:57:51;103333.45;;;9.34;63.54
69351;BME280;57106;51.446;-2.606;2023-02-13T05:00:16;103333.73;;;9.20;63.54
69351;BME280;57106;51.446;-2.606;2023-02-13T05:02:41;103333.33;;;9.42;63.25
69351;BME280;57106;51.446;-2.606;2023-02-13T05:05:06;103329.67;;;9.44;63.20
69351;BME280;57106;51.446;-2.606;2023-02-13T05:07:36;103328.47;;;9.61;62.62
69351;BME280;57106;51.446;-2.606;2023-02-13T05:09:58;103326.32;;;9.27;63.53
69351;BME280;57106;51.446;-2.606;2023-02-13T05:12:23;103326.98;;;9.35;63.58
69351;BME280;57106;51.446;-2.606;2023-02-13T05:14:49;103331.40;;;9.33;63.64
69351;BME280;57106;51.446;-2.606;2023-02-13T05:17:14;103330.28;;;9.35;63.36
69351;BME280;57106;51.446;-2.606;2023-02-13T05:26:56;103321.70;;;9.27;63.41
69351;BME280;57106;51.446;-2.606;2023-02-13T05:29:22;103329.42;;;9.14;63.53
69351;BME280;57106;51.446;-2.606;2023-02-13T05:31:49;103325.86;;;9.29;63.33
69351;BME280;57106;51.446;-2.606;2023-02-13T05:36:38;103318.48;;;9.15;63.69
69351;BME280;57106;51.446;-2.606;2023-02-13T05:39:03;103321.10;;;9.31;63.17
69351;BME280;57106;51.446;-2.606;2023-02-13T05:41:28;103316.04;;;8.88;64.02
69351;BME280;57106;51.446;-2.606;2023-02-13T05:43:53;103312.76;;;9.07;63.51
69351;BME280;57106;51.446;-2.606;2023-02-13T05:46:19;103310.94;;;8.88;64.35
69351;BME280;57106;51.446;-2.606;2023-02-13T05:48:45;103311.32;;;9.05;64.02
69351;BME280;57106;51.446;-2.606;2023-02-13T05:51:12;103306.46;;;9.12;63.82
69351;BME280;57106;51.446;-2.606;2023-02-13T05:53:35;103304.44;;;9.05;63.85
69351;BME280;57106;51.446;-2.606;2023-02-13T05:56:02;103306.16;;;8.80;64.48
69351;BME280;57106;51.446;-2.606;2023-02-13T05:58:26;103306.30;;;8.78;64.16
69351;BME280;57106;51.446;-2.606;2023-02-13T06:00:54;103300.11;;;8.78;64.56
69351;BME280;57106;51.446;-2.606;2023-02-13T06:03:17;103297.77;;;8.87;64.33
69351;BME280;57106;51.446;-2.606;2023-02-13T07:13:35;103306.97;;;8.94;63.74
69351;BME280;57106;51.446;-2.606;2023-02-13T07:20:57;103307.38;;;8.76;64.50
69351;BME280;57106;51.446;-2.606;2023-02-13T07:25:43;103299.94;;;8.62;64.65
69351;BME280;57106;51.446;-2.606;2023-02-13T07:28:08;103297.99;;;8.71;64.28
69351;BME280;57106;51.446;-2.606;2023-02-13T07:30:34;103298.30;;;8.35;65.64
69351;BME280;57106;51.446;-2.606;2023-02-13T07:35:24;103283.10;;;8.09;66.15
69351;BME280;57106;51.446;-2.606;2023-02-13T07:37:52;103282.74;;;8.18;66.03
69351;BME280;57106;51.446;-2.606;2023-02-13T07:40:16;103283.03;;;8.09;65.99
69351;BME280;57106;51.446;-2.606;2023-02-13T07:42:42;103284.68;;;7.87;66.94
69351;BME280;57106;51.446;-2.606;2023-02-13T07:45:07;103287.44;;;8.02;66.50
69351;BME280;57106;51.446;-2.606;2023-02-13T07:47:32;103284.34;;;7.98;66.71
69351;BME280;57106;51.446;-2.606;2023-02-13T07:54:48;103290.98;;;8.03;66.53
69351;BME280;57106;51.446;-2.606;2023-02-13T07:57:14;103295.83;;;8.13;65.93
69351;BME280;57106;51.446;-2.606;2023-02-13T07:59:39;103296.08;;;8.22;65.91
69351;BME280;57106;51.446;-2.606;2023-02-13T08:02:05;103298.03;;;8.27;66.03
69351;BME280;57106;51.446;-2.606;2023-02-13T08:04:30;103305.07;;;8.19;66.01
69351;BME280;57106;51.446;-2.606;2023-02-13T08:06:56;103311.23;;;8.41;65.80
69351;BME280;57106;51.446;-2.606;2023-02-13T08:09:21;103308.66;;;8.67;65.03
69351;BME280;57106;51.446;-2.606;2023-02-13T08:11:47;103314.78;;;8.62;64.61
69351;BME280;57106;51.446;-2.606;2023-02-13T08:14:13;103311.44;;;8.68;64.86
69351;BME280;57106;51.446;-2.606;2023-02-13T08:24:01;103305.38;;;8.87;63.98
69351;BME280;57106;51.446;-2.606;2023-02-13T08:28:46;103303.48;;;8.50;64.89
69351;BME280;57106;51.446;-2.606;2023-02-13T08:31:12;103304.53;;;8.64;64.87
69351;BME280;57106;51.446;-2.606;2023-02-13T08:36:02;103308.84;;;8.97;64.02
69351;BME280;57106;51.446;-2.606;2023-02-13T08:40:56;103307.25;;;9.06;63.68
69351;BME280;57106;51.446;-2.606;2023-02-13T08:43:18;103306.33;;;9.16;63.30
69351;BME280;57106;51.446;-2.606;2023-02-13T08:45:43;103306.72;;;8.88;64.48
69351;BME280;57106;51.446;-2.606;2023-02-13T08:48:09;103306.83;;;9.06;63.88
69351;BME280;57106;51.446;-2.606;2023-02-13T08:50:35;103309.62;;;9.17;63.62
69351;BME280;57106;51.446;-2.606;2023-02-13T08:52:59;103320.81;;;9.01;63.83
69351;BME280;57106;51.446;-2.606;2023-02-13T08:55:26;103319.70;;;8.92;64.11
69351;BME280;57106;51.446;-2.606;2023-02-13T08:57:51;103322.49;;;8.78;64.69
69351;BME280;57106;51.446;-2.606;2023-02-13T09:00:19;103320.00;;;8.59;65.18
69351;BME280;57106;51.446;-2.606;2023-02-13T09:02:42;103321.21;;;8.55;65.56
69351;BME280;57106;51.446;-2.606;2023-02-13T09:05:08;103317.47;;;8.71;65.46
69351;BME280;57106;51.446;-2.606;2023-02-13T09:07:33;103315.22;;;8.70;65.18
69351;BME280;57106;51.446;-2.606;2023-02-13T09:10:02;103312.46;;;8.82;65.16
69351;BME280;57106;51.446;-2.606;2023-02-13T09:12:27;103302.75;;;8.51;65.89
69351;BME280;57106;51.446;-2.606;2023-02-13T09:14:49;103303.41;;;8.57;66.12
69351;BME280;57106;51.446;-2.606;2023-02-13T09:17:15;103311.51;;;8.64;65.99
69351;BME280;57106;51.446;-2.606;2023-02-13T09:19:44;103309.67;;;8.82;65.20
69351;BME280;57106;51.446;-2.606;2023-02-13T09:22:08;103311.12;;;8.82;65.08
69351;BME280;57106;51.446;-2.606;2023-02-13T09:34:13;103303.97;;;8.71;64.73
69351;BME280;57106;51.446;-2.606;2023-02-13T09:36:39;103309.71;;;8.97;64.20
69351;BME280;57106;51.446;-2.606;2023-02-13T09:39:11;103313.47;;;9.05;64.03
69351;BME280;57106;51.446;-2.606;2023-02-13T09:41:32;103310.23;;;9.15;63.84
69351;BME280;57106;51.446;-2.606;2023-02-13T09:43:57;103306.75;;;9.21;63.58
69351;BME280;57106;51.446;-2.606;2023-02-13T09:48:50;103308.56;;;9.31;63.29
69351;BME280;57106;51.446;-2.606;2023-02-13T10:08:19;103302.51;;;9.15;63.57
69351;BME280;57106;51.446;-2.606;2023-02-13T10:10:40;103303.92;;;9.29;63.42
69351;BME280;57106;51.446;-2.606;2023-02-13T10:13:07;103305.08;;;9.00;64.15
69351;BME280;57106;51.446;-2.606;2023-02-13T10:15:30;103301.42;;;8.79;64.87
69351;BME280;57106;51.446;-2.606;2023-02-13T10:17:56;103302.77;;;8.60;65.59
69351;BME280;57106;51.446;-2.606;2023-02-13T10:20:24;103294.83;;;8.70;65.40
69351;BME280;57106;51.446;-2.606;2023-02-13T10:22:44;103292.81;;;8.54;65.81
69351;BME280;57106;51.446;-2.606;2023-02-13T10:25:13;103295.56;;;8.87;64.94
69351;BME280;57106;51.446;-2.606;2023-02-13T10:27:36;103294.95;;;8.66;65.47
69351;BME280;57106;51.446;-2.606;2023-02-13T10:30:00;103290.33;;;8.68;65.43
69351;BME280;57106;51.446;-2.606;2023-02-13T10:32:27;103287.18;;;8.70;65.53
69351;BME280;57106;51.446;-2.606;2023-02-13T10:34:50;103288.24;;;8.74;65.11
69351;BME280;57106;51.446;-2.606;2023-02-13T10:37:16;103286.32;;;8.99;64.31
69351;BME280;57106;51.446;-2.606;2023-02-13T10:39:42;103282.21;;;9.05;64.18
69351;BME280;57106;51.446;-2.606;2023-02-13T10:42:10;103290.37;;;8.88;64.54
69351;BME280;57106;51.446;-2.606;2023-02-13T10:44:46;103292.15;;;8.95;64.48
69351;BME280;57106;51.446;-2.606;2023-02-13T10:47:02;103294.20;;;9.10;64.34
69351;BME280;57106;51.446;-2.606;2023-02-13T10:49:36;103293.14;;;9.20;63.92
69351;BME280;57106;51.446;-2.606;2023-02-13T10:51:50;103293.30;;;9.35;63.63
69351;BME280;57106;51.446;-2.606;2023-02-13T10:54:21;103295.62;;;9.63;63.01
69351;BME280;57106;51.446;-2.606;2023-02-13T10:56:40;103293.37;;;9.33;63.73
69351;BME280;57106;51.446;-2.606;2023-02-13T10:59:14;103292.25;;;9.28;63.95
69351;BME280;57106;51.446;-2.606;2023-02-13T11:01:34;103291.46;;;9.35;63.76
69351;BME280;57106;51.446;-2.606;2023-02-13T11:04:00;103292.20;;;9.25;64.60
69351;BME280;57106;51.446;-2.606;2023-02-13T11:06:19;103292.46;;;9.36;64.03
69351;BME280;57106;51.446;-2.606;2023-02-13T11:08:46;103289.32;;;9.29;63.60
69351;BME280;57106;51.446;-2.606;2023-02-13T11:13:36;103279.35;;;9.20;64.57
69351;BME280;57106;51.446;-2.606;2023-02-13T11:16:08;103277.50;;;9.25;64.56
69351;BME280;57106;51.446;-2.606;2023-02-13T11:18:28;103275.25;;;9.22;64.68
69351;BME280;57106;51.446;-2.606;2023-02-13T11:33:02;103266.82;;;9.71;62.89
69351;BME280;57106;51.446;-2.606;2023-02-13T11:35:28;103267.86;;;9.86;62.14
69351;BME280;57106;51.446;-2.606;2023-02-13T11:40:28;103263.38;;;9.88;62.55
69351;BME280;57106;51.446;-2.606;2023-02-13T11:42:41;103259.83;;;9.74;62.99
69351;BME280;57106;51.446;-2.606;2023-02-13T11:47:35;103253.49;;;9.53;63.78
69351;BME280;57106;51.446;-2.606;2023-02-13T11:49:57;103250.59;;;9.81;63.29
69351;BME280;57106;51.446;-2.606;2023-02-13T11:54:54;103242.89;;;10.04;62.69
69351;BME280;57106;51.446;-2.606;2023-02-13T11:57:20;103239.58;;;10.14;61.13
69351;BME280;57106;51.446;-2.606;2023-02-13T12:02:13;103239.98;;;10.63;60.42
69351;BME280;57106;51.446;-2.606;2023-02-13T12:07:00;103234.66;;;11.02;59.97
69351;BME280;57106;51.446;-2.606;2023-02-13T12:09:20;103235.25;;;11.06;59.62
69351;BME280;57106;51.446;-2.606;2023-02-13T12:11:48;103237.92;;;10.91;59.54
69351;BME280;57106;51.446;-2.606;2023-02-13T12:14:17;103240.51;;;10.97;59.57
69351;BME280;57106;51.446;-2.606;2023-02-13T12:16:40;103234.78;;;11.05;59.45
69351;BME280;57106;51.446;-2.606;2023-02-13T12:19:06;103231.50;;;11.19;58.36
69351;BME280;57106;51.446;-2.606;2023-02-13T12:21:40;103227.48;;;11.05;59.31
69351;BME280;57106;51.446;-2.606;2023-02-13T12:23:59;103232.79;;;11.00;59.11
69351;BME280;57106;51.446;-2.606;2023-02-13T12:26:25;103234.03;;;10.69;60.10
69351;BME280;57106;51.446;-2.606;2023-02-13T12:28:53;103228.07;;;10.89;59.57
69351;BME280;57106;51.446;-2.606;2023-02-13T12:31:23;103226.34;;;10.73;60.19
69351;BME280;57106;51.446;-2.606;2023-02-13T12:33:47;103222.62;;;10.79;59.91
69351;BME280;57106;51.446;-2.606;2023-02-13T12:36:04;103217.06;;;10.98;59.66
69351;BME280;57106;51.446;-2.606;2023-02-13T12:41:04;103211.37;;;11.31;58.48
69351;BME280;57106;51.446;-2.606;2023-02-13T12:43:27;103206.64;;;11.33;58.70
69351;BME280;57106;51.446;-2.606;2023-02-13T12:45:47;103204.39;;;11.44;58.47
69351;BME280;57106;51.446;-2.606;2023-02-13T12:48:18;103203.46;;;11.26;58.79
69351;BME280;57106;51.446;-2.606;2023-02-13T12:50:48;103205.85;;;11.30;58.83
69351;BME280;57106;51.446;-2.606;2023-02-13T12:53:13;103198.80;;;11.30;58.42
69351;BME280;57106;51.446;-2.606;2023-02-13T12:55:39;103193.80;;;11.53;57.70
69351;BME280;57106;51.446;-2.606;2023-02-13T12:57:59;103191.29;;;11.63;57.74
69351;BME280;57106;51.446;-2.606;2023-02-13T13:00:23;103184.31;;;11.73;57.58
69351;BME280;57106;51.446;-2.606;2023-02-13T13:02:57;103180.51;;;11.60;57.89
69351;BME280;57106;51.446;-2.606;2023-02-13T13:07:41;103168.63;;;11.28;57.96
69351;BME280;57106;51.446;-2.606;2023-02-13T13:12:30;103170.40;;;11.25;59.51
69351;BME280;57106;51.446;-2.606;2023-02-13T13:14:53;103168.24;;;11.37;58.26
69351;BME280;57106;51.446;-2.606;2023-02-13T13:17:22;103162.35;;;11.39;58.03
69351;BME280;57106;51.446;-2.606;2023-02-13T13:19:42;103158.98;;;11.29;58.46
69351;BME280;57106;51.446;-2.606;2023-02-13T13:22:04;103158.58;;;11.35;58.33
69351;BME280;57106;51.446;-2.606;2023-02-13T13:24:38;103151.22;;;11.42;57.91
69351;BME280;57106;51.446;-2.606;2023-02-13T13:26:53;103147.53;;;11.62;57.43
69351;BME280;57106;51.446;-2.606;2023-02-13T13:29:21;103143.22;;;11.38;57.95
69351;BME280;57106;51.446;-2.606;2023-02-13T13:31:44;103143.06;;;11.56;57.63
69351;BME280;57106;51.446;-2.606;2023-02-13T13:34:16;103137.21;;;11.53;57.74
69351;BME280;57106;51.446;-2.606;2023-02-13T13:36:39;103131.66;;;11.40;58.01
69351;BME280;57106;51.446;-2.606;2023-02-13T13:39:02;103130.27;;;11.34;57.91
69351;BME280;57106;51.446;-2.606;2023-02-13T13:41:31;103132.26;;;11.65;57.50
69351;BME280;57106;51.446;-2.606;2023-02-13T13:46:28;103126.43;;;11.77;57.01
69351;BME280;57106;51.446;-2.606;2023-02-13T13:51:08;103119.07;;;11.79;57.13
69351;BME280;57106;51.446;-2.606;2023-02-13T13:56:00;103109.41;;;11.91;56.07
69351;BME280;57106;51.446;-2.606;2023-02-13T13:58:25;103105.03;;;11.93;56.21
69351;BME280;57106;51.446;-2.606;2023-02-13T14:12:59;103088.10;;;11.85;56.20
69351;BME280;57106;51.446;-2.606;2023-02-13T14:17:51;103088.84;;;12.42;54.85
69351;BME280;57106;51.446;-2.606;2023-02-13T14:20:18;103087.35;;;12.33;55.53
69351;BME280;57106;51.446;-2.606;2023-02-13T14:22:37;103084.57;;;12.09;55.81
69351;BME280;57106;51.446;-2.606;2023-02-13T14:25:04;103079.07;;;12.06;56.09
69351;BME280;57106;51.446;-2.606;2023-02-13T14:27:29;103074.28;;;11.70;57.15
69351;BME280;57106;51.446;-2.606;2023-02-13T14:29:53;103069.52;;;11.52;57.93
69351;BME280;57106;51.446;-2.606;2023-02-13T14:32:24;103069.64;;;11.68;57.45
69351;BME280;57106;51.446;-2.606;2023-02-13T14:34:50;103071.32;;;11.78;57.21
69351;BME280;57106;51.446;-2.606;2023-02-13T14:37:20;103068.96;;;11.88;57.08
69351;BME280;57106;51.446;-2.606;2023-02-13T14:39:34;103062.31;;;11.76;57.54
69351;BME280;57106;51.446;-2.606;2023-02-13T14:42:00;103059.21;;;11.71;57.37
69351;BME280;57106;51.446;-2.606;2023-02-13T14:44:31;103057.59;;;11.81;56.79
69351;BME280;57106;51.446;-2.606;2023-02-13T14:46:57;103056.21;;;11.91;56.67
69351;BME280;57106;51.446;-2.606;2023-02-13T14:49:19;103053.50;;;11.88;56.70
69351;BME280;57106;51.446;-2.606;2023-02-13T14:51:45;103052.24;;;11.83;56.94
69351;BME280;57106;51.446;-2.606;2023-02-13T14:54:16;103050.03;;;11.95;56.13
69351;BME280;57106;51.446;-2.606;2023-02-13T14:56:33;103047.82;;;11.77;56.69
69351;BME280;57106;51.446;-2.606;2023-02-13T14:59:04;103048.72;;;11.80;56.80
69351;BME280;57106;51.446;-2.606;2023-02-13T15:01:27;103049.58;;;11.86;56.66
69351;BME280;57106;51.446;-2.606;2023-02-13T15:03:50;103046.70;;;11.80;56.61
69351;BME280;57106;51.446;-2.606;2023-02-13T15:06:20;103048.30;;;12.09;56.03
69351;BME280;57106;51.446;-2.606;2023-02-13T15:08:48;103045.09;;;11.99;55.95
69351;BME280;57106;51.446;-2.606;2023-02-13T15:11:05;103046.59;;;12.05;55.85
69351;BME280;57106;51.446;-2.606;2023-02-13T15:13:33;103045.84;;;12.00;55.93
69351;BME280;57106;51.446;-2.606;2023-02-13T15:15:59;103043.46;;;12.18;55.69
69351;BME280;57106;51.446;-2.606;2023-02-13T15:18:24;103044.72;;;11.95;55.65
69351;BME280;57106;51.446;-2.606;2023-02-13T15:20:46;103037.20;;;12.01;54.85
69351;BME280;57106;51.446;-2.606;2023-02-13T15:23:19;103038.95;;;11.99;54.60
69351;BME280;57106;51.446;-2.606;2023-02-13T15:25:38;103040.16;;;11.88;54.87
69351;BME280;57106;51.446;-2.606;2023-02-13T15:28:05;103035.39;;;11.83;54.98
69351;BME280;57106;51.446;-2.606;2023-02-13T15:30:32;103030.70;;;11.97;54.78
69351;BME280;57106;51.446;-2.606;2023-02-13T15:32:56;103030.37;;;12.05;54.48
69351;BME280;57106;51.446;-2.606;2023-02-13T15:35:23;103027.93;;;12.18;54.37
69351;BME280;57106;51.446;-2.606;2023-02-13T15:37:45;103026.76;;;12.20;54.20
69351;BME280;57106;51.446;-2.606;2023-02-13T15:40:18;103021.25;;;11.96;54.91
69351;BME280;57106;51.446;-2.606;2023-02-13T15:42:37;103021.98;;;11.78;55.21
69351;BME280;57106;51.446;-2.606;2023-02-13T15:45:02;103026.64;;;11.89;54.77
69351;BME280;57106;51.446;-2.606;2023-02-13T15:47:29;103022.41;;;11.81;54.88
69351;BME280;57106;51.446;-2.606;2023-02-13T15:49:53;103024.18;;;12.07;54.62
69351;BME280;57106;51.446;-2.606;2023-02-13T15:52:21;103025.02;;;12.08;54.54
69351;BME280;57106;51.446;-2.606;2023-02-13T15:54:47;103027.42;;;12.14;54.15
69351;BME280;57106;51.446;-2.606;2023-02-13T15:57:10;103023.11;;;12.07;54.00
69351;BME280;57106;51.446;-2.606;2023-02-13T15:59:36;103024.31;;;12.22;53.70
69351;BME280;57106;51.446;-2.606;2023-02-13T16:02:01;103021.34;;;12.12;53.93
69351;BME280;57106;51.446;-2.606;2023-02-13T16:04:27;103021.42;;;12.06;53.93
69351;BME280;57106;51.446;-2.606;2023-02-13T16:06:54;103020.07;;;11.99;54.27
69351;BME280;57106;51.446;-2.606;2023-02-13T16:09:24;103020.81;;;12.04;53.99
69351;BME280;57106;51.446;-2.606;2023-02-13T16:11:44;103021.01;;;12.15;53.91
69351;BME280;57106;51.446;-2.606;2023-02-13T16:14:14;103022.08;;;12.02;54.46
69351;BME280;57106;51.446;-2.606;2023-02-13T16:16:35;103024.20;;;12.08;54.60
69351;BME280;57106;51.446;-2.606;2023-02-13T16:18:58;103019.19;;;11.93;55.11
69351;BME280;57106;51.446;-2.606;2023-02-13T16:21:25;103021.02;;;11.75;55.42
69351;BME280;57106;51.446;-2.606;2023-02-13T16:23:48;103027.60;;;11.66;55.56
69351;BME280;57106;51.446;-2.606;2023-02-13T16:26:14;103027.30;;;11.70;55.66
69351;BME280;57106;51.446;-2.606;2023-02-13T16:28:38;103029.29;;;11.70;55.88
69351;BME280;57106;51.446;-2.606;2023-02-13T16:31:04;103027.67;;;11.72;55.80
69351;BME280;57106;51.446;-2.606;2023-02-13T16:33:29;103027.71;;;11.68;55.05
69351;BME280;57106;51.446;-2.606;2023-02-13T16:35:56;103028.23;;;11.64;55.40
69351;BME280;57106;51.446;-2.606;2023-02-13T16:38:27;103028.22;;;11.72;54.97
69351;BME280;57106;51.446;-2.606;2023-02-13T16:40:45;103030.23;;;11.66;54.87
69351;BME280;57106;51.446;-2.606;2023-02-13T16:45:36;103032.20;;;11.56;55.00
69351;BME280;57106;51.446;-2.606;2023-02-13T16:48:02;103036.59;;;11.48;54.97
69351;BME280;57106;51.446;-2.606;2023-02-13T16:50:27;103042.10;;;11.43;54.98
69351;BME280;57106;51.446;-2.606;2023-02-13T16:52:58;103042.86;;;11.44;54.98
69351;BME280;57106;51.446;-2.606;2023-02-13T16:55:17;103041.91;;;11.46;55.14
69351;BME280;57106;51.446;-2.606;2023-02-13T16:57:42;103041.87;;;11.44;55.31
69351;BME280;57106;51.446;-2.606;2023-02-13T17:00:16;103041.22;;;11.32;55.89
69351;BME280;57106;51.446;-2.606;2023-02-13T17:02:34;103039.60;;;11.23;56.48
69351;BME280;57106;51.446;-2.606;2023-02-13T17:07:25;103035.31;;;11.11;57.18
69351;BME280;57106;51.446;-2.606;2023-02-13T17:09:52;103038.39;;;11.15;57.21
69351;BME280;57106;51.446;-2.606;2023-02-13T17:12:16;103038.83;;;11.08;57.40
69351;BME280;57106;51.446;-2.606;2023-02-13T17:14:41;103038.27;;;11.07;57.54